createdAt,value
2019-02-02T00:01:25.551Z,2.84
2019-02-02T00:02:25.785Z,2.89
2019-02-02T00:04:29.925Z,2.85
2019-02-02T00:05:30.159Z,2.82
2019-02-02T00:07:34.318Z,2.89
2019-02-02T00:08:34.553Z,2.84
2019-02-02T00:10:38.695Z,2.90
2019-02-02T00:11:38.927Z,2.84
2019-02-02T00:13:43.090Z,2.84
2019-02-02T00:14:45.187Z,2.87
2019-02-02T00:16:36.417Z,2.82
2019-02-02T00:17:36.649Z,2.85
2019-02-02T00:19:40.794Z,2.81
2019-02-02T00:20:41.026Z,2.85
2019-02-02T00:22:45.193Z,2.87
2019-02-02T00:23:45.425Z,2.82
2019-02-02T00:25:49.566Z,2.87
2019-02-02T00:26:49.803Z,2.78
2019-02-02T00:28:53.961Z,2.82
2019-02-02T00:29:54.192Z,2.77
2019-02-02T00:31:58.362Z,2.78
2019-02-02T00:32:58.594Z,2.82
2019-02-02T00:35:02.740Z,2.79
2019-02-02T00:36:02.973Z,2.72
2019-02-02T00:38:07.137Z,2.77
2019-02-02T00:39:07.369Z,2.72
2019-02-02T00:41:11.511Z,2.74
2019-02-02T00:42:11.745Z,2.61
2019-02-02T00:44:15.905Z,2.57
2019-02-02T00:45:16.139Z,2.57
2019-02-02T00:47:09.233Z,2.59
2019-02-02T00:48:09.585Z,2.67
2019-02-02T00:50:13.606Z,2.60
2019-02-02T00:51:13.839Z,2.61
2019-02-02T00:53:18.002Z,2.57
2019-02-02T00:54:18.236Z,2.61
2019-02-02T00:56:22.378Z,2.63
2019-02-02T00:57:22.612Z,2.57
2019-02-02T00:59:26.774Z,2.57
2019-02-02T01:00:27.008Z,2.52
2019-02-02T01:02:31.169Z,2.57
2019-02-02T01:03:31.402Z,2.59
2019-02-02T01:05:35.553Z,2.54
2019-02-02T01:06:35.787Z,2.56
2019-02-02T01:08:39.949Z,2.59
2019-02-02T01:09:40.182Z,2.57
2019-02-02T01:11:44.326Z,2.60
2019-02-02T01:12:44.561Z,2.63
2019-02-02T01:14:48.727Z,2.60
2019-02-02T01:15:48.960Z,2.61
2019-02-02T01:17:53.124Z,2.53
2019-02-02T01:18:53.357Z,2.53
2019-02-02T01:20:57.500Z,2.49
2019-02-02T01:21:57.733Z,2.49
2019-02-02T01:24:01.904Z,2.49
2019-02-02T01:25:02.130Z,2.42
2019-02-02T01:26:55.201Z,2.49
2019-02-02T01:28:05.021Z,2.43
2019-02-02T01:29:59.602Z,2.53
2019-02-02T01:30:59.837Z,2.42
2019-02-02T01:33:04.006Z,2.48
2019-02-02T01:34:04.245Z,2.43
2019-02-02T01:36:08.379Z,2.46
2019-02-02T01:37:08.613Z,2.45
2019-02-02T01:39:12.778Z,2.49
2019-02-02T01:40:13.011Z,2.39
2019-02-02T01:42:17.155Z,2.39
2019-02-02T01:43:17.393Z,2.41
2019-02-02T01:45:21.554Z,2.41
2019-02-02T01:46:21.801Z,2.45
2019-02-02T01:48:25.952Z,2.48
2019-02-02T01:49:26.176Z,2.46
2019-02-02T01:51:30.324Z,2.52
2019-02-02T01:52:30.560Z,2.43
2019-02-02T01:54:34.719Z,2.59
2019-02-02T01:55:34.952Z,2.53
2019-02-02T01:57:39.092Z,2.52
2019-02-02T01:58:39.331Z,2.46
2019-02-02T02:00:43.490Z,2.53
2019-02-02T02:01:43.720Z,2.43
2019-02-02T02:03:47.894Z,2.46
2019-02-02T02:04:48.126Z,2.49
2019-02-02T02:06:41.196Z,2.39
2019-02-02T02:07:41.427Z,2.39
2019-02-02T02:09:45.591Z,2.52
2019-02-02T02:10:45.824Z,2.41
2019-02-02T02:12:49.970Z,2.46
2019-02-02T02:13:50.204Z,2.46
2019-02-02T02:15:54.369Z,2.48
2019-02-02T02:16:54.602Z,2.49
2019-02-02T02:18:58.779Z,2.42
2019-02-02T02:19:59.015Z,2.41
2019-02-02T02:22:03.158Z,2.42
2019-02-02T02:23:03.391Z,2.42
2019-02-02T02:25:07.552Z,2.41
2019-02-02T02:26:07.787Z,2.46
2019-02-02T02:28:11.929Z,2.46
2019-02-02T02:29:12.159Z,2.43
2019-02-02T02:31:16.323Z,2.45
2019-02-02T02:32:16.553Z,2.39
2019-02-02T02:34:20.717Z,2.45
2019-02-02T02:35:20.949Z,2.41
2019-02-02T02:37:25.096Z,2.34
2019-02-02T02:38:25.326Z,2.36
2019-02-02T02:40:29.490Z,2.39
2019-02-02T02:41:29.722Z,2.36
2019-02-02T02:43:33.864Z,2.35
2019-02-02T02:44:34.097Z,2.35
2019-02-02T02:46:27.189Z,2.39
2019-02-02T02:47:27.422Z,2.38
2019-02-02T02:49:31.562Z,2.36
2019-02-02T02:50:31.798Z,2.30
2019-02-02T02:52:35.958Z,2.24
2019-02-02T02:53:36.190Z,2.34
2019-02-02T02:55:40.356Z,2.34
2019-02-02T02:56:40.589Z,2.35
2019-02-02T02:58:44.732Z,2.36
2019-02-02T02:59:45.003Z,2.36
2019-02-02T03:01:49.133Z,2.36
2019-02-02T03:02:49.356Z,2.45
2019-02-02T03:04:53.502Z,2.42
2019-02-02T03:05:53.732Z,2.41
2019-02-02T03:07:57.896Z,2.45
2019-02-02T03:08:58.130Z,2.43
2019-02-02T03:11:02.295Z,2.46
2019-02-02T03:12:02.540Z,2.43
2019-02-02T03:14:07.678Z,2.48
2019-02-02T03:15:07.909Z,2.42
2019-02-02T03:17:01.001Z,2.39
2019-02-02T03:18:01.234Z,2.48
2019-02-02T03:20:05.374Z,2.42
2019-02-02T03:21:05.605Z,2.46
2019-02-02T03:23:09.795Z,2.49
2019-02-02T03:24:09.999Z,2.42
2019-02-02T03:26:14.166Z,2.53
2019-02-02T03:27:14.398Z,2.49
2019-02-02T03:29:18.539Z,2.54
2019-02-02T03:30:18.787Z,2.43
2019-02-02T03:32:22.937Z,2.43
2019-02-02T03:33:23.187Z,2.52
2019-02-02T03:35:27.314Z,2.59
2019-02-02T03:36:27.547Z,2.48
2019-02-02T03:38:31.720Z,2.56
2019-02-02T03:39:31.954Z,2.60
2019-02-02T03:41:36.125Z,2.54
2019-02-02T03:42:36.362Z,2.45
2019-02-02T03:44:40.507Z,2.41
2019-02-02T03:45:41.124Z,2.41
2019-02-02T03:47:44.903Z,2.53
2019-02-02T03:48:45.138Z,2.38
2019-02-02T03:50:49.283Z,2.45
2019-02-02T03:51:49.514Z,2.43
2019-02-02T03:53:53.676Z,2.42
2019-02-02T03:54:53.911Z,2.35
2019-02-02T03:56:47.005Z,2.41
2019-02-02T03:57:47.237Z,2.41
2019-02-02T03:59:51.383Z,2.27
2019-02-02T04:00:51.613Z,2.30
2019-02-02T04:02:55.774Z,2.36
2019-02-02T04:03:56.009Z,2.34
2019-02-02T04:06:00.154Z,2.35
2019-02-02T04:07:00.386Z,2.38
2019-02-02T04:09:04.561Z,2.38
2019-02-02T04:10:04.787Z,2.42
2019-02-02T04:12:08.957Z,2.39
2019-02-02T04:13:09.190Z,2.45
2019-02-02T04:15:13.332Z,2.38
2019-02-02T04:16:13.565Z,2.38
2019-02-02T04:18:17.728Z,2.46
2019-02-02T04:19:17.961Z,2.48
2019-02-02T04:21:22.100Z,2.31
2019-02-02T04:22:22.334Z,2.30
2019-02-02T04:24:26.507Z,2.28
2019-02-02T04:25:26.740Z,2.30
2019-02-02T04:27:30.906Z,2.36
2019-02-02T04:28:31.140Z,2.39
2019-02-02T04:30:35.282Z,2.27
2019-02-02T04:31:35.516Z,2.35
2019-02-02T04:33:39.681Z,2.39
2019-02-02T04:34:39.916Z,2.35
2019-02-02T04:36:32.982Z,2.42
2019-02-02T04:37:33.218Z,2.27
2019-02-02T04:39:37.382Z,2.34
2019-02-02T04:40:37.618Z,2.31
2019-02-02T04:42:41.782Z,2.21
2019-02-02T04:43:42.016Z,2.25
2019-02-02T04:45:46.155Z,2.17
2019-02-02T04:46:46.389Z,2.24
2019-02-02T04:48:50.551Z,2.18
2019-02-02T04:49:50.784Z,2.23
2019-02-02T04:51:54.935Z,2.21
2019-02-02T04:52:55.170Z,2.17
2019-02-02T04:54:59.330Z,2.20
2019-02-02T04:55:59.561Z,2.16
2019-02-02T04:58:03.730Z,2.25
2019-02-02T04:59:03.963Z,2.06
2019-02-02T05:01:08.101Z,2.17
2019-02-02T05:02:08.398Z,2.12
2019-02-02T05:04:12.496Z,2.10
2019-02-02T05:05:12.727Z,2.00
2019-02-02T05:07:05.792Z,2.03
2019-02-02T05:08:06.028Z,2.07
2019-02-02T05:10:10.186Z,2.03
2019-02-02T05:11:10.421Z,2.03
2019-02-02T05:13:14.586Z,2.07
2019-02-02T05:14:14.819Z,2.12
2019-02-02T05:16:18.964Z,2.17
2019-02-02T05:17:19.195Z,2.14
2019-02-02T05:19:23.355Z,2.18
2019-02-02T05:20:23.590Z,2.09
2019-02-02T05:22:27.736Z,2.07
2019-02-02T05:23:27.965Z,2.24
2019-02-02T05:25:32.132Z,2.12
2019-02-02T05:26:32.364Z,2.09
2019-02-02T05:28:36.529Z,2.24
2019-02-02T05:29:41.430Z,2.23
2019-02-02T05:31:40.899Z,2.35
2019-02-02T05:32:41.132Z,2.31
2019-02-02T05:34:45.302Z,2.31
2019-02-02T05:35:45.536Z,2.38
2019-02-02T05:37:49.678Z,2.34
2019-02-02T05:38:49.909Z,2.27
2019-02-02T05:40:54.069Z,2.30
2019-02-02T05:41:54.302Z,2.24
2019-02-02T05:43:58.473Z,2.28
2019-02-02T05:44:58.708Z,2.17
2019-02-02T05:46:51.780Z,2.27
2019-02-02T05:47:52.017Z,2.38
2019-02-02T05:49:56.176Z,2.23
2019-02-02T05:50:56.409Z,2.24
2019-02-02T05:53:00.554Z,2.28
2019-02-02T05:54:00.784Z,2.23
2019-02-02T05:56:04.946Z,2.35
2019-02-02T05:57:05.215Z,2.23
2019-02-02T05:59:09.336Z,2.30
2019-02-02T06:00:09.567Z,2.27
2019-02-02T06:02:13.707Z,2.27
2019-02-02T06:03:13.939Z,2.30
2019-02-02T06:05:18.112Z,2.34
2019-02-02T06:06:18.352Z,2.34
2019-02-02T06:08:22.494Z,2.30
2019-02-02T06:09:22.979Z,2.28
2019-02-02T06:11:26.895Z,2.30
2019-02-02T06:12:27.132Z,2.34
2019-02-02T06:14:31.297Z,2.28
2019-02-02T06:15:31.533Z,2.21
2019-02-02T06:17:35.672Z,2.23
2019-02-02T06:18:35.906Z,2.25
2019-02-02T06:20:40.070Z,2.16
2019-02-02T06:21:40.307Z,2.18
2019-02-02T06:23:44.442Z,2.16
2019-02-02T06:24:44.675Z,2.18
2019-02-02T06:26:37.788Z,2.16
2019-02-02T06:27:37.998Z,2.20
2019-02-02T06:29:42.142Z,2.27
2019-02-02T06:30:42.376Z,2.17
2019-02-02T06:32:46.564Z,2.16
2019-02-02T06:33:46.769Z,2.17
2019-02-02T06:35:50.931Z,2.14
2019-02-02T06:36:51.165Z,2.16
2019-02-02T06:38:55.304Z,2.14
2019-02-02T06:39:55.536Z,2.10
2019-02-02T06:41:59.695Z,2.20
2019-02-02T06:42:59.926Z,2.16
2019-02-02T06:45:04.072Z,2.16
2019-02-02T06:46:04.304Z,2.25
2019-02-02T06:48:08.466Z,2.17
2019-02-02T06:49:08.702Z,2.27
2019-02-02T06:51:12.861Z,2.35
2019-02-02T06:52:13.094Z,2.35
2019-02-02T06:54:17.236Z,2.34
2019-02-02T06:55:17.468Z,2.34
2019-02-02T06:57:10.559Z,2.38
2019-02-02T06:58:10.793Z,2.38
2019-02-02T07:00:16.276Z,2.25
2019-02-02T07:01:15.167Z,2.27
2019-02-02T07:03:19.333Z,2.14
2019-02-02T07:04:19.607Z,2.23
2019-02-02T07:06:23.736Z,2.16
2019-02-02T07:07:23.967Z,2.23
2019-02-02T07:09:28.108Z,2.20
2019-02-02T07:10:28.341Z,2.18
2019-02-02T07:12:32.504Z,2.18
2019-02-02T07:13:32.738Z,2.18
2019-02-02T07:15:36.879Z,2.21
2019-02-02T07:16:37.113Z,2.16
2019-02-02T07:18:41.276Z,2.21
2019-02-02T07:19:41.509Z,2.18
2019-02-02T07:21:45.669Z,2.24
2019-02-02T07:22:45.904Z,2.16
2019-02-02T07:24:50.284Z,2.30
2019-02-02T07:25:50.288Z,2.28
2019-02-02T07:27:54.447Z,2.39
2019-02-02T07:28:54.682Z,2.28
2019-02-02T07:30:58.827Z,2.35
2019-02-02T07:31:59.058Z,2.35
2019-02-02T07:34:03.227Z,2.34
2019-02-02T07:35:03.459Z,2.30
2019-02-02T07:36:56.553Z,2.30
2019-02-02T07:37:56.788Z,2.27
2019-02-02T07:40:00.926Z,2.38
2019-02-02T07:41:01.159Z,2.42
2019-02-02T07:43:05.332Z,2.36
2019-02-02T07:44:05.566Z,2.41
2019-02-02T07:46:14.987Z,2.35
2019-02-02T07:47:09.942Z,2.39
2019-02-02T07:49:14.099Z,2.31
2019-02-02T07:50:14.333Z,2.16
2019-02-02T07:52:18.495Z,2.12
2019-02-02T07:53:18.729Z,2.23
2019-02-02T07:55:22.873Z,1.95
2019-02-02T07:56:23.107Z,2.12
2019-02-02T07:58:27.264Z,2.07
2019-02-02T07:59:27.498Z,2.16
2019-02-02T08:01:31.636Z,2.05
2019-02-02T08:02:31.870Z,2.05
2019-02-02T08:04:36.032Z,2.03
2019-02-02T08:05:36.264Z,2.06
2019-02-02T08:07:40.426Z,2.10
2019-02-02T08:08:40.659Z,2.25
2019-02-02T08:10:44.807Z,2.20
2019-02-02T08:11:45.039Z,2.16
2019-02-02T08:13:49.200Z,2.21
2019-02-02T08:14:49.436Z,2.24
2019-02-02T08:16:42.511Z,2.39
2019-02-02T08:17:42.746Z,2.34
2019-02-02T08:19:46.914Z,2.39
2019-02-02T08:20:47.149Z,2.49
2019-02-02T08:22:51.313Z,2.52
2019-02-02T08:23:51.550Z,2.52
2019-02-02T08:25:55.692Z,2.56
2019-02-02T08:26:55.924Z,2.61
2019-02-02T08:29:00.090Z,2.54
2019-02-02T08:30:00.368Z,2.64
2019-02-02T08:32:04.458Z,2.74
2019-02-02T08:33:04.700Z,2.71
2019-02-02T08:35:08.851Z,2.79
2019-02-02T08:36:09.087Z,2.66
2019-02-02T08:38:13.248Z,2.82
2019-02-02T08:39:13.483Z,2.72
2019-02-02T08:41:17.626Z,2.79
2019-02-02T08:42:17.857Z,2.75
2019-02-02T08:44:22.016Z,2.82
2019-02-02T08:45:22.332Z,2.85
2019-02-02T08:47:26.397Z,2.89
2019-02-02T08:48:26.641Z,2.82
2019-02-02T08:50:30.795Z,2.77
2019-02-02T08:51:31.029Z,2.71
2019-02-02T08:53:35.380Z,2.79
2019-02-02T08:54:35.423Z,2.82
2019-02-02T08:56:28.552Z,2.85
2019-02-02T08:57:28.765Z,2.77
2019-02-02T08:59:32.896Z,2.74
2019-02-02T09:00:33.129Z,2.81
2019-02-02T09:02:37.274Z,2.66
2019-02-02T09:03:37.514Z,2.67
2019-02-02T09:05:41.695Z,2.57
2019-02-02T09:06:41.911Z,2.59
2019-02-02T09:08:46.068Z,2.53
2019-02-02T09:09:46.303Z,2.67
2019-02-02T09:11:50.442Z,2.59
2019-02-02T09:12:50.681Z,2.53
2019-02-02T09:14:54.837Z,2.48
2019-02-02T09:15:55.069Z,2.53
2019-02-02T09:17:59.215Z,2.60
2019-02-02T09:18:59.455Z,2.72
2019-02-02T09:21:03.610Z,2.74
2019-02-02T09:22:03.845Z,2.69
2019-02-02T09:24:08.007Z,2.59
2019-02-02T09:25:08.244Z,2.63
2019-02-02T09:27:01.324Z,2.57
2019-02-02T09:28:01.560Z,2.67
2019-02-02T09:30:05.723Z,2.71
2019-02-02T09:31:15.591Z,2.63
2019-02-02T09:33:10.093Z,2.72
2019-02-02T09:34:10.333Z,2.71
2019-02-02T09:36:16.749Z,2.78
2019-02-02T09:37:14.730Z,2.78
2019-02-02T09:39:18.891Z,2.84
2019-02-02T09:40:19.127Z,2.85
2019-02-02T09:42:23.267Z,2.82
2019-02-02T09:43:23.501Z,2.82
2019-02-02T09:45:27.669Z,2.84
2019-02-02T09:46:27.899Z,2.81
2019-02-02T09:48:32.037Z,2.89
2019-02-02T09:49:32.270Z,2.74
2019-02-02T09:51:36.433Z,2.87
2019-02-02T09:52:36.668Z,2.87
2019-02-02T09:54:40.809Z,3.05
2019-02-02T09:55:41.047Z,2.78
2019-02-02T09:57:45.210Z,2.95
2019-02-02T09:58:45.444Z,2.96
2019-02-02T10:00:49.617Z,3.11
2019-02-02T10:01:49.848Z,3.05
2019-02-02T10:03:53.990Z,3.11
2019-02-02T10:04:54.227Z,3.26
2019-02-02T10:06:47.320Z,3.26
2019-02-02T10:07:47.552Z,3.18
2019-02-02T10:09:51.692Z,3.21
2019-02-02T10:10:51.925Z,3.24
2019-02-02T10:12:56.091Z,3.14
2019-02-02T10:13:56.325Z,3.29
2019-02-02T10:16:00.495Z,3.20
2019-02-02T10:17:00.731Z,3.40
2019-02-02T10:19:04.872Z,3.29
2019-02-02T10:20:05.108Z,3.21
2019-02-02T10:22:09.267Z,3.18
2019-02-02T10:23:09.501Z,3.17
2019-02-02T10:25:13.642Z,3.11
2019-02-02T10:26:13.876Z,3.10
2019-02-02T10:28:18.055Z,3.02
2019-02-02T10:29:18.290Z,3.06
2019-02-02T10:31:22.453Z,3.11
2019-02-02T10:32:22.687Z,2.97
2019-02-02T10:34:26.827Z,3.08
2019-02-02T10:35:27.062Z,3.13
2019-02-02T10:37:31.235Z,3.14
2019-02-02T10:38:31.471Z,3.17
2019-02-02T10:40:35.670Z,3.29
2019-02-02T10:41:35.960Z,3.28
2019-02-02T10:43:40.047Z,3.36
2019-02-02T10:44:40.279Z,3.29
2019-02-02T10:46:33.374Z,3.36
2019-02-02T10:47:33.608Z,3.35
2019-02-02T10:49:37.750Z,3.32
2019-02-02T10:50:37.984Z,3.43
2019-02-02T10:52:42.151Z,3.42
2019-02-02T10:53:42.386Z,3.33
2019-02-02T10:55:46.821Z,3.47
2019-02-02T10:56:46.828Z,3.47
2019-02-02T10:58:50.968Z,3.33
2019-02-02T10:59:51.204Z,3.39
2019-02-02T11:01:55.364Z,2.92
2019-02-02T11:02:55.609Z,2.95
2019-02-02T11:04:59.866Z,2.82
2019-02-02T11:05:59.986Z,2.92
2019-02-02T11:08:04.286Z,3.03
2019-02-02T11:09:04.481Z,2.89
2019-02-02T11:11:08.575Z,2.89
2019-02-02T11:12:08.826Z,2.79
2019-02-02T11:14:13.022Z,2.75
2019-02-02T11:15:13.266Z,2.67
2019-02-02T11:17:06.380Z,2.72
2019-02-02T11:18:06.512Z,2.74
2019-02-02T11:20:10.669Z,2.75
2019-02-02T11:21:11.022Z,2.81
2019-02-02T11:23:15.207Z,2.79
2019-02-02T11:24:15.270Z,2.72
2019-02-02T11:26:19.524Z,2.61
2019-02-02T11:27:19.793Z,2.61
2019-02-02T11:29:23.812Z,2.57
2019-02-02T11:30:24.097Z,2.57
2019-02-02T11:32:28.212Z,2.59
2019-02-02T11:33:28.448Z,2.63
2019-02-02T11:35:32.588Z,2.61
2019-02-02T11:36:32.823Z,2.61
2019-02-02T11:38:36.992Z,2.57
2019-02-02T11:39:37.228Z,2.61
2019-02-02T11:41:41.394Z,2.59
2019-02-02T11:42:41.621Z,2.60
2019-02-02T11:44:45.761Z,2.67
2019-02-02T11:45:45.998Z,2.75
2019-02-02T11:47:50.159Z,2.71
2019-02-02T11:48:50.394Z,2.74
2019-02-02T11:50:54.542Z,2.60
2019-02-02T11:51:54.775Z,2.69
2019-02-02T11:53:58.936Z,2.67
2019-02-02T11:54:59.172Z,2.67
2019-02-02T11:56:52.238Z,2.77
2019-02-02T11:57:52.472Z,2.78
2019-02-02T11:59:56.634Z,2.75
2019-02-02T12:00:56.867Z,2.78
2019-02-02T12:03:04.212Z,2.84
2019-02-02T12:04:01.273Z,2.96
2019-02-02T12:06:05.412Z,3.06
2019-02-02T12:07:05.646Z,3.03
2019-02-02T12:09:09.808Z,3.24
2019-02-02T12:10:10.045Z,3.14
2019-02-02T12:12:14.184Z,3.47
2019-02-02T12:13:14.424Z,3.52
2019-02-02T12:15:18.581Z,3.66
2019-02-02T12:16:18.821Z,3.75
2019-02-02T12:18:22.976Z,3.83
2019-02-02T12:19:23.378Z,3.91
2019-02-02T12:21:27.622Z,4.08
2019-02-02T12:22:27.861Z,4.15
2019-02-02T12:24:32.025Z,4.29
2019-02-02T12:25:32.259Z,4.34
2019-02-02T12:27:36.474Z,4.47
2019-02-02T12:28:36.847Z,4.54
2019-02-02T12:30:41.015Z,4.37
2019-02-02T12:31:41.250Z,4.51
2019-02-02T12:33:45.415Z,4.60
2019-02-02T12:34:45.735Z,4.51
2019-02-02T12:36:38.888Z,4.62
2019-02-02T12:37:39.179Z,4.66
2019-02-02T12:39:43.341Z,4.59
2019-02-02T12:40:43.573Z,4.59
2019-02-02T12:42:47.753Z,4.69
2019-02-02T12:43:48.140Z,4.63
2019-02-02T12:45:52.470Z,4.73
2019-02-02T12:46:52.703Z,4.80
2019-02-02T12:48:56.996Z,4.69
2019-02-02T12:49:57.388Z,4.78
2019-02-02T12:52:01.603Z,4.88
2019-02-02T12:53:02.024Z,4.97
2019-02-02T12:55:05.967Z,4.94
2019-02-02T12:56:06.199Z,4.94
2019-02-02T12:58:10.399Z,5.12
2019-02-02T12:59:10.653Z,5.07
2019-02-02T13:01:14.823Z,5.10
2019-02-02T13:02:15.056Z,5.24
2019-02-02T13:04:19.365Z,5.33
2019-02-02T13:05:19.750Z,5.35
2019-02-02T13:07:12.918Z,5.39
2019-02-02T13:08:13.150Z,5.46
2019-02-02T13:10:17.325Z,5.49
2019-02-02T13:11:17.561Z,5.51
2019-02-02T13:13:21.721Z,5.42
2019-02-02T13:14:21.950Z,5.42
2019-02-02T13:16:26.118Z,5.07
2019-02-02T13:17:26.360Z,5.17
2019-02-02T13:19:30.658Z,5.00
2019-02-02T13:20:31.065Z,5.02
2019-02-02T13:22:35.210Z,5.03
2019-02-02T13:23:35.446Z,5.00
2019-02-02T13:25:39.803Z,4.94
2019-02-02T13:26:39.898Z,4.86
2019-02-02T13:28:44.048Z,4.92
2019-02-02T13:29:44.287Z,5.03
2019-02-02T13:31:48.451Z,4.89
2019-02-02T13:32:50.165Z,5.02
2019-02-02T13:34:52.905Z,4.92
2019-02-02T13:35:53.151Z,4.94
2019-02-02T13:37:57.292Z,4.67
2019-02-02T13:38:57.531Z,4.59
2019-02-02T13:41:01.834Z,4.63
2019-02-02T13:42:02.130Z,4.51
2019-02-02T13:44:06.333Z,4.52
2019-02-02T13:45:07.095Z,4.60
2019-02-02T13:46:59.703Z,4.59
2019-02-02T13:47:59.939Z,4.62
2019-02-02T13:50:04.294Z,4.52
2019-02-02T13:51:06.058Z,4.55
2019-02-02T13:53:08.619Z,4.54
2019-02-02T13:54:08.938Z,4.45
2019-02-02T13:56:13.101Z,4.47
2019-02-02T13:57:13.337Z,4.48
2019-02-02T13:59:17.579Z,4.52
2019-02-02T14:00:18.109Z,4.54
2019-02-02T14:02:22.142Z,4.60
2019-02-02T14:03:22.379Z,4.54
2019-02-02T14:05:26.723Z,4.42
2019-02-02T14:06:26.856Z,4.52
2019-02-02T14:08:32.028Z,4.42
2019-02-02T14:09:32.264Z,4.29
2019-02-02T14:11:36.624Z,4.42
2019-02-02T14:12:37.322Z,4.36
2019-02-02T14:14:41.842Z,4.44
2019-02-02T14:15:41.586Z,4.44
2019-02-02T14:17:45.895Z,4.50
2019-02-02T14:18:46.288Z,4.40
2019-02-02T14:20:50.446Z,4.34
2019-02-02T14:21:50.729Z,4.47
2019-02-02T14:23:54.894Z,4.47
2019-02-02T14:24:55.203Z,4.41
2019-02-02T14:26:48.331Z,4.29
2019-02-02T14:27:48.563Z,4.27
2019-02-02T14:29:52.709Z,4.37
2019-02-02T14:30:53.736Z,4.42
2019-02-02T14:32:57.185Z,4.40
2019-02-02T14:33:57.446Z,4.36
2019-02-02T14:36:02.123Z,4.47
2019-02-02T14:37:01.985Z,4.40
2019-02-02T14:39:06.136Z,4.33
2019-02-02T14:40:06.371Z,4.30
2019-02-02T14:42:10.539Z,4.36
2019-02-02T14:43:10.781Z,4.36
2019-02-02T14:45:14.930Z,4.47
2019-02-02T14:46:15.160Z,4.47
2019-02-02T14:48:19.328Z,4.63
2019-02-02T14:49:19.621Z,4.59
2019-02-02T14:51:23.785Z,4.48
2019-02-02T14:52:24.024Z,4.48
2019-02-02T14:54:28.164Z,4.42
2019-02-02T14:55:28.399Z,4.20
2019-02-02T14:57:32.561Z,4.27
2019-02-02T14:58:32.802Z,4.20
2019-02-02T15:00:36.948Z,4.14
2019-02-02T15:01:37.183Z,3.94
2019-02-02T15:03:41.384Z,4.02
2019-02-02T15:04:41.588Z,4.09
2019-02-02T15:06:34.681Z,3.98
2019-02-02T15:07:34.917Z,3.91
2019-02-02T15:09:39.056Z,3.91
2019-02-02T15:10:39.286Z,3.93
2019-02-02T15:12:43.508Z,3.91
2019-02-02T15:13:43.744Z,3.91
2019-02-02T15:15:47.883Z,3.94
2019-02-02T15:16:48.118Z,3.96
2019-02-02T15:18:52.279Z,3.94
2019-02-02T15:19:52.516Z,3.91
2019-02-02T15:21:56.713Z,3.94
2019-02-02T15:22:56.949Z,3.94
2019-02-02T15:25:01.090Z,3.91
2019-02-02T15:26:01.326Z,3.93
2019-02-02T15:28:05.616Z,3.62
2019-02-02T15:29:05.965Z,3.60
2019-02-02T15:31:10.107Z,3.50
2019-02-02T15:32:10.342Z,3.50
2019-02-02T15:34:14.504Z,3.54
2019-02-02T15:35:14.739Z,3.47
2019-02-02T15:37:07.808Z,3.55
2019-02-02T15:38:08.043Z,3.50
2019-02-02T15:40:12.235Z,3.43
2019-02-02T15:41:12.506Z,3.42
2019-02-02T15:43:16.666Z,3.48
2019-02-02T15:44:16.905Z,3.48
2019-02-02T15:46:21.042Z,3.36
2019-02-02T15:47:21.273Z,3.42
2019-02-02T15:49:25.435Z,3.39
2019-02-02T15:50:25.682Z,3.28
2019-02-02T15:52:29.845Z,3.31
2019-02-02T15:53:30.074Z,3.14
2019-02-02T15:55:34.214Z,3.11
2019-02-02T15:56:34.447Z,3.14
2019-02-02T15:58:38.610Z,3.00
2019-02-02T15:59:39.029Z,3.00
2019-02-02T16:01:42.985Z,3.10
2019-02-02T16:02:43.218Z,3.06
2019-02-02T16:04:47.387Z,3.10
2019-02-02T16:05:47.617Z,3.17
2019-02-02T16:07:51.798Z,3.15
2019-02-02T16:08:52.025Z,3.15
2019-02-02T16:10:56.174Z,3.20
2019-02-02T16:11:56.401Z,3.23
2019-02-02T16:14:00.571Z,3.02
2019-02-02T16:15:00.805Z,3.05
2019-02-02T16:16:53.877Z,3.18
2019-02-02T16:17:54.122Z,3.06
2019-02-02T16:19:58.282Z,3.10
2019-02-02T16:20:58.511Z,3.21
2019-02-02T16:23:02.686Z,3.21
2019-02-02T16:24:02.920Z,3.13
2019-02-02T16:26:07.062Z,3.18
2019-02-02T16:27:07.299Z,3.18
2019-02-02T16:29:11.459Z,3.15
2019-02-02T16:30:11.693Z,3.15
2019-02-02T16:32:15.832Z,3.15
2019-02-02T16:33:16.066Z,3.24
2019-02-02T16:35:20.234Z,3.18
2019-02-02T16:36:20.473Z,3.17
2019-02-02T16:38:24.629Z,3.23
2019-02-02T16:39:24.861Z,3.40
2019-02-02T16:41:29.001Z,3.28
2019-02-02T16:42:29.236Z,3.45
2019-02-02T16:44:33.399Z,3.35
2019-02-02T16:45:33.633Z,3.32
2019-02-02T16:47:37.776Z,3.33
2019-02-02T16:48:38.008Z,3.31
2019-02-02T16:50:42.170Z,3.31
2019-02-02T16:51:42.406Z,3.29
2019-02-02T16:53:46.565Z,3.32
2019-02-02T16:54:46.801Z,3.24
2019-02-02T16:56:39.902Z,3.23
2019-02-02T16:57:40.103Z,3.31
2019-02-02T16:59:44.264Z,3.29
2019-02-02T17:00:44.500Z,3.24
2019-02-02T17:02:48.646Z,3.29
2019-02-02T17:03:48.879Z,3.32
2019-02-02T17:05:53.041Z,3.39
2019-02-02T17:06:53.276Z,3.33
2019-02-02T17:08:57.443Z,3.29
2019-02-02T17:09:57.675Z,3.23
2019-02-02T17:12:01.821Z,3.33
2019-02-02T17:13:02.055Z,3.29
2019-02-02T17:15:06.216Z,3.33
2019-02-02T17:16:06.454Z,3.24
2019-02-02T17:18:10.598Z,3.32
2019-02-02T17:19:10.834Z,3.33
2019-02-02T17:21:14.993Z,3.32
2019-02-02T17:22:15.229Z,3.23
2019-02-02T17:24:19.390Z,3.33
2019-02-02T17:25:22.430Z,3.28
2019-02-02T17:27:12.692Z,3.35
2019-02-02T17:28:12.929Z,3.42
2019-02-02T17:30:17.107Z,3.35
2019-02-02T17:31:17.332Z,3.24
2019-02-02T17:33:21.476Z,3.32
2019-02-02T17:34:27.284Z,3.42
2019-02-02T17:36:25.871Z,3.29
2019-02-02T17:37:26.107Z,3.39
2019-02-02T17:39:30.277Z,3.39
2019-02-02T17:40:30.517Z,3.35
2019-02-02T17:42:34.657Z,3.31
2019-02-02T17:43:35.007Z,3.33
2019-02-02T17:45:39.055Z,3.43
2019-02-02T17:46:39.288Z,3.33
2019-02-02T17:48:43.429Z,3.33
2019-02-02T17:49:43.664Z,3.43
2019-02-02T17:51:47.833Z,3.40
2019-02-02T17:52:48.064Z,3.47
2019-02-02T17:54:52.272Z,3.45
2019-02-02T17:55:52.500Z,3.48
2019-02-02T17:57:56.700Z,3.47
2019-02-02T17:58:56.930Z,3.45
2019-02-02T18:01:01.267Z,3.42
2019-02-02T18:02:01.440Z,3.45
2019-02-02T18:04:05.592Z,3.51
2019-02-02T18:05:05.829Z,3.42
2019-02-02T18:06:58.920Z,3.50
2019-02-02T18:07:59.157Z,3.47
2019-02-02T18:10:03.368Z,3.47
2019-02-02T18:11:03.633Z,3.40
2019-02-02T18:13:07.807Z,3.35
2019-02-02T18:14:08.032Z,3.42
2019-02-02T18:16:12.198Z,3.45
2019-02-02T18:17:12.549Z,3.32
2019-02-02T18:19:16.689Z,3.40
2019-02-02T18:20:16.996Z,3.39
2019-02-02T18:22:21.163Z,3.31
2019-02-02T18:23:21.403Z,3.36
2019-02-02T18:25:25.568Z,3.29
2019-02-02T18:26:25.847Z,3.33
2019-02-02T18:28:29.993Z,3.45
2019-02-02T18:29:30.273Z,3.36
2019-02-02T18:31:34.435Z,3.32
2019-02-02T18:32:34.749Z,3.33
2019-02-02T18:34:49.923Z,3.28
2019-02-02T18:35:39.148Z,3.31
2019-02-02T18:37:43.330Z,3.36
2019-02-02T18:38:43.564Z,3.40
2019-02-02T18:40:47.726Z,3.24
2019-02-02T18:41:48.013Z,3.31
2019-02-02T18:43:52.191Z,3.35
2019-02-02T18:44:52.467Z,3.33
2019-02-02T18:46:45.562Z,3.39
2019-02-02T18:47:45.798Z,3.29
2019-02-02T18:49:50.000Z,3.31
2019-02-02T18:50:50.304Z,3.31
2019-02-02T18:52:54.651Z,3.24
2019-02-02T18:53:54.710Z,3.31
2019-02-02T18:55:58.962Z,3.45
2019-02-02T18:56:59.194Z,3.28
2019-02-02T18:59:03.357Z,3.32
2019-02-02T19:00:06.164Z,3.35
2019-02-02T19:02:07.757Z,3.31
2019-02-02T19:03:07.992Z,3.28
2019-02-02T19:05:12.155Z,3.31
2019-02-02T19:06:12.387Z,3.35
2019-02-02T19:08:16.548Z,3.31
2019-02-02T19:09:16.784Z,3.24
2019-02-02T19:11:20.950Z,3.21
2019-02-02T19:12:21.191Z,3.33
2019-02-02T19:14:25.329Z,3.21
2019-02-02T19:15:25.563Z,3.39
2019-02-02T19:17:29.728Z,3.40
2019-02-02T19:18:29.961Z,3.23
2019-02-02T19:20:34.113Z,3.29
2019-02-02T19:21:34.345Z,3.33
2019-02-02T19:23:38.508Z,3.33
2019-02-02T19:24:38.744Z,3.20
2019-02-02T19:26:31.838Z,3.29
2019-02-02T19:27:32.073Z,3.15
2019-02-02T19:29:36.217Z,3.23
2019-02-02T19:30:36.447Z,3.20
2019-02-02T19:32:40.612Z,3.20
2019-02-02T19:33:40.848Z,3.21
2019-02-02T19:35:44.987Z,3.28
2019-02-02T19:36:45.222Z,3.08
2019-02-02T19:38:49.396Z,3.15
2019-02-02T19:39:49.630Z,3.17
2019-02-02T19:41:53.797Z,3.11
2019-02-02T19:42:54.032Z,3.06
2019-02-02T19:44:58.179Z,3.15
2019-02-02T19:45:58.416Z,3.14
2019-02-02T19:48:02.578Z,3.14
2019-02-02T19:49:02.812Z,3.08
2019-02-02T19:51:06.955Z,3.15
2019-02-02T19:52:07.191Z,3.20
2019-02-02T19:54:11.359Z,3.14
2019-02-02T19:55:14.734Z,3.15
2019-02-02T19:57:04.684Z,3.15
2019-02-02T19:58:04.914Z,3.13
2019-02-02T20:00:09.059Z,3.18
2019-02-02T20:01:09.293Z,3.17
2019-02-02T20:03:13.455Z,3.14
2019-02-02T20:04:13.689Z,3.08
2019-02-02T20:06:17.835Z,3.17
2019-02-02T20:07:18.073Z,3.15
2019-02-02T20:09:22.241Z,3.20
2019-02-02T20:10:22.470Z,3.28
2019-02-02T20:12:26.635Z,3.23
2019-02-02T20:13:26.867Z,3.18
2019-02-02T20:15:31.010Z,3.29
2019-02-02T20:16:31.246Z,3.24
2019-02-02T20:18:35.407Z,3.14
2019-02-02T20:19:35.642Z,3.21
2019-02-02T20:21:39.788Z,3.13